Terminal Aerodrome Forecast
Issued by NWS

Current Version | Previous Version | Text Only | Print | Product List | Glossary On
Versions: 1 2 3 4 5 6 7 8 9 10 11 12 13 14 15 16
000
FTUS42 KFFC 281120
TAFFTY
TAF
KFTY 281120Z 2812/2912 07005KT P6SM BKN010
      TEMPO 2812/2814 SCT008 BKN015
     FM281400 08008KT P6SM SCT010 BKN020
     FM281700 09010KT P6SM SCT035
     FM290000 10004KT P6SM FEW040 BKN250
     FM290900 09003KT P6SM BKN010 BKN025=

USA.gov is the U.S. government's official web portal to all federal, state and local government web resources and services.